Time;durP1;ratioP1;P1;durP2;ratioP2;P2;SDS_P1;SDS_P2;PMS_P1;PMS_P2;Temp;Humidity;BMP_temperature;BMP_pressure;BME280_temperature;BME280_humidity;BME280_pressure;Samples;Min_cycle;Max_cycle;Signal;HPM_P1;HPM_P2
2023/01/03 00:01:57;;;;;;;15.10;9.70;;;4.30;99.90;;;;;;5075955;28;20093;-88
2023/01/03 00:04:23;;;;;;;13.60;8.90;;;4.30;99.90;;;;;;5057996;28;20123;-88
2023/01/03 00:06:53;;;;;;;15.80;8.65;;;4.20;99.90;;;;;;5075393;28;20213;-89
2023/01/03 00:09:22;;;;;;;14.57;8.20;;;4.20;99.90;;;;;;5107831;28;20036;-88
2023/01/03 00:14:41;;;;;;;13.07;7.43;;;4.20;99.90;;;;;;5107540;28;20148;-88
2023/01/03 00:17:09;;;;;;;13.77;6.90;;;4.10;99.90;;;;;;5107966;28;20044;-88
2023/01/03 00:19:42;;;;;;;13.75;6.82;;;4.10;99.90;;;;;;5090743;28;20485;-88
2023/01/03 00:22:10;;;;;;;11.95;6.43;;;4.10;99.90;;;;;;5107542;28;20125;-88
2023/01/03 00:24:37;;;;;;;12.30;6.38;;;4.00;99.90;;;;;;5107378;28;20115;-88
2023/01/03 00:27:04;;;;;;;16.55;7.30;;;3.90;99.90;;;;;;5090917;28;20496;-88
2023/01/03 00:29:31;;;;;;;12.57;7.63;;;3.90;99.90;;;;;;5090658;28;20489;-86
2023/01/03 00:31:58;;;;;;;15.60;8.18;;;3.90;99.90;;;;;;5085925;28;20051;-89
2023/01/03 00:34:25;;;;;;;17.38;8.15;;;3.90;99.90;;;;;;5110822;28;20046;-88
2023/01/03 00:36:52;;;;;;;18.30;9.10;;;3.80;99.90;;;;;;5110347;28;20036;-88
2023/01/03 00:39:18;;;;;;;20.95;10.35;;;3.80;99.90;;;;;;5077720;28;20048;-88
2023/01/03 00:41:45;;;;;;;18.50;9.70;;;3.80;99.90;;;;;;5089884;28;20120;-89
2023/01/03 00:44:12;;;;;;;17.55;9.60;;;3.80;99.90;;;;;;5090368;28;20036;-88
2023/01/03 00:46:39;;;;;;;16.85;10.35;;;3.80;99.90;;;;;;5106931;28;20043;-88
2023/01/03 00:49:07;;;;;;;19.20;9.60;;;3.80;99.90;;;;;;5090332;28;20036;-88
2023/01/03 00:51:36;;;;;;;20.20;9.35;;;3.30;99.90;;;;;;5109192;28;20079;-85
2023/01/03 00:54:05;;;;;;;17.67;8.90;;;3.80;99.90;;;;;;5094370;28;20088;-89
2023/01/03 00:56:34;;;;;;;15.90;7.88;;;3.70;99.90;;;;;;5094305;28;20039;-87
2023/01/03 00:59:01;;;;;;;14.48;6.30;;;3.70;99.90;;;;;;5110401;28;20052;-88
2023/01/03 01:01:35;;;;;;;13.65;5.72;;;3.80;99.90;;;;;;5077423;28;20139;-88
2023/01/03 01:04:11;;;;;;;15.32;5.65;;;3.80;99.90;;;;;;5107870;28;20047;-88
2023/01/03 01:06:39;;;;;;;;;;;3.70;99.90;;;;;;5110703;28;20076;-88
2023/01/03 01:09:10;;;;;;;14.95;5.53;;;3.70;99.90;;;;;;5110866;28;19916;-88
2023/01/03 01:11:36;;;;;;;14.77;5.82;;;3.60;99.90;;;;;;5127131;28;20148;-88
2023/01/03 01:14:18;;;;;;;13.13;5.93;;;3.70;99.90;;;;;;5089744;28;20512;-88
2023/01/03 01:16:51;;;;;;;13.07;6.00;;;3.60;99.90;;;;;;5091732;28;20040;-87
2023/01/03 01:19:20;;;;;;;15.63;7.40;;;3.60;99.90;;;;;;5107103;28;20048;-88
2023/01/03 01:21:50;;;;;;;15.65;6.45;;;3.60;99.90;;;;;;5106635;28;20416;-89
2023/01/03 01:24:17;;;;;;;12.32;6.75;;;3.60;99.90;;;;;;5110054;28;20032;-88
2023/01/03 01:26:45;;;;;;;18.15;7.40;;;3.60;99.90;;;;;;5110453;28;20105;-89
2023/01/03 01:29:13;;;;;;;15.13;6.93;;;3.70;99.90;;;;;;5110147;28;20439;-88
2023/01/03 01:31:41;;;;;;;19.15;8.05;;;3.60;99.90;;;;;;5110052;28;20573;-85
2023/01/03 01:34:08;;;;;;;15.55;7.80;;;4.10;99.90;;;;;;5099861;28;20076;-88
2023/01/03 01:36:36;;;;;;;19.00;8.32;;;3.60;99.90;;;;;;5089234;28;20040;-88
2023/01/03 01:39:06;;;;;;;16.08;7.55;;;3.60;99.90;;;;;;5114034;28;20040;-87
2023/01/03 01:44:43;;;;;;;15.90;6.03;;;4.00;99.90;;;;;;5123083;28;20033;-88
2023/01/03 01:47:35;;;;;;;10.98;4.22;;;3.70;99.90;;;;;;5093613;28;20045;-88
2023/01/03 01:50:11;;;;;;;11.13;4.18;;;3.70;99.90;;;;;;5093432;28;20492;-88
2023/01/03 01:52:42;;;;;;;10.20;3.70;;;3.70;99.90;;;;;;5093515;28;20048;-88
2023/01/03 01:55:14;;;;;;;10.45;3.65;;;3.80;99.90;;;;;;5110244;28;20036;-88
2023/01/03 01:57:41;;;;;;;5.78;2.90;;;3.80;99.90;;;;;;5110721;28;20114;-88
2023/01/03 02:00:09;;;;;;;10.52;3.50;;;3.80;99.90;;;;;;5093533;28;20040;-88
2023/01/03 02:02:36;;;;;;;9.95;3.30;;;3.90;99.90;;;;;;5093335;28;20040;-88
2023/01/03 02:05:05;;;;;;;10.13;3.20;;;3.80;99.90;;;;;;5076673;28;20051;-88
2023/01/03 02:07:33;;;;;;;7.60;3.28;;;3.90;99.90;;;;;;5105594;28;20488;-88
2023/01/03 02:10:00;;;;;;;8.68;3.30;;;4.10;99.90;;;;;;5096837;28;20400;-88
2023/01/03 02:13:05;;;;;;;12.05;3.72;;;4.50;99.90;;;;;;5096754;28;20450;-88
2023/01/03 02:15:51;;;;;;;13.23;3.90;;;4.00;99.90;;;;;;5082068;28;20044;-88
2023/01/03 02:18:48;;;;;;;9.93;4.03;;;4.00;99.90;;;;;;5093258;28;20048;-88
2023/01/03 02:22:06;;;;;;;9.63;4.05;;;4.00;99.90;;;;;;5093090;28;20055;-87
2023/01/03 02:25:09;;;;;;;9.55;4.03;;;4.00;99.90;;;;;;5060077;28;20094;-88
2023/01/03 02:27:36;;;;;;;9.45;3.55;;;4.00;99.90;;;;;;5093057;28;20215;-88
2023/01/03 02:30:33;;;;;;;10.10;3.95;;;4.00;99.90;;;;;;5109609;28;20107;-88
2023/01/03 02:33:11;;;;;;;;;;;3.90;99.90;;;;;;5092783;28;20051;-88
2023/01/03 02:35:46;;;;;;;9.43;4.07;;;4.00;99.90;;;;;;5111217;28;19963;-88
2023/01/03 02:38:54;;;;;;;10.65;4.20;;;4.00;99.90;;;;;;5092353;28;20089;-88
2023/01/03 02:41:50;;;;;;;13.50;4.40;;;4.00;99.90;;;;;;5108589;28;20048;-88
2023/01/03 02:44:32;;;;;;;14.82;4.45;;;4.00;99.90;;;;;;5092210;28;20127;-87
2023/01/03 02:47:09;;;;;;;12.23;5.10;;;4.10;99.90;;;;;;5092525;28;20044;-88
2023/01/03 02:49:47;;;;;;;15.10;4.72;;;4.10;99.90;;;;;;5092270;28;20102;-88
2023/01/03 02:52:25;;;;;;;12.35;4.75;;;4.10;99.90;;;;;;5092433;28;20475;-88
2023/01/03 02:55:18;;;;;;;11.02;4.13;;;4.10;99.90;;;;;;5092437;28;20873;-88
2023/01/03 02:57:51;;;;;;;9.95;4.10;;;4.10;99.90;;;;;;5106787;28;20035;-88
2023/01/03 03:00:22;;;;;;;9.88;4.60;;;4.10;99.90;;;;;;5112517;28;20076;-89
2023/01/03 03:02:58;;;;;;;8.32;4.15;;;4.00;99.90;;;;;;5112582;28;20040;-88
2023/01/03 03:05:30;;;;;;;12.48;5.95;;;4.10;99.90;;;;;;5129318;28;20048;-88
2023/01/03 03:07:57;;;;;;;11.95;4.30;;;4.10;99.90;;;;;;5109513;28;20052;-88
2023/01/03 03:13:26;;;;;;;11.40;3.85;;;4.00;99.90;;;;;;5108631;28;20055;-88
2023/01/03 03:16:46;;;;;;;15.77;4.50;;;4.10;99.90;;;;;;5108664;28;20044;-88
2023/01/03 03:19:13;;;;;;;12.65;4.95;;;4.10;99.90;;;;;;5113413;28;20059;-88
2023/01/03 03:30:06;;;;;;;10.02;4.97;;;4.20;99.90;;;;;;5128387;28;20098;-88
2023/01/03 03:32:35;;;;;;;9.25;4.43;;;4.10;99.90;;;;;;5104715;28;20037;-88
2023/01/03 03:35:05;;;;;;;10.18;4.50;;;4.10;99.90;;;;;;5074913;28;20078;-88
2023/01/03 03:37:35;;;;;;;11.35;4.75;;;4.10;99.90;;;;;;5091628;28;20032;-88
2023/01/03 03:46:04;;;;;;;13.02;5.28;;;3.90;99.90;;;;;;5128960;28;20037;-88
2023/01/03 03:49:36;;;;;;;;;;;3.80;99.90;;;;;;5112050;28;20089;-88
2023/01/03 03:51:26;;;;;;;11.65;5.50;;;3.80;99.90;;;;;;5128910;28;19923;-88
2023/01/03 03:53:55;;;;;;;12.55;4.63;;;3.70;99.90;;;;;;5116287;28;20103;-88
2023/01/03 03:56:27;;;;;;;11.25;5.03;;;4.10;99.90;;;;;;5074685;28;20554;-88
2023/01/03 03:58:59;;;;;;;13.40;5.15;;;3.60;99.90;;;;;;5107542;28;20049;-87
2023/01/03 04:01:26;;;;;;;12.27;5.55;;;3.60;99.90;;;;;;5091003;28;20036;-88
2023/01/03 04:03:59;;;;;;;11.82;5.50;;;3.60;99.90;;;;;;5091213;28;20049;-87
2023/01/03 04:06:37;;;;;;;9.07;4.95;;;3.50;99.90;;;;;;5091271;28;20044;-88
2023/01/03 04:09:04;;;;;;;21.75;6.10;;;3.50;99.90;;;;;;5090816;28;20036;-88
2023/01/03 04:11:31;;;;;;;13.18;5.40;;;3.50;99.90;;;;;;5074516;28;20527;-88
2023/01/03 04:13:58;;;;;;;14.93;5.78;;;3.40;99.90;;;;;;5078089;28;20048;-88
2023/01/03 04:16:24;;;;;;;11.50;5.57;;;3.40;99.90;;;;;;5080080;28;20036;-88
2023/01/03 04:18:51;;;;;;;11.57;5.88;;;3.30;99.90;;;;;;5090918;28;20052;-88
2023/01/03 04:21:18;;;;;;;15.02;6.50;;;3.30;99.90;;;;;;5090533;28;20084;-88
2023/01/03 04:23:44;;;;;;;13.95;6.38;;;3.20;99.90;;;;;;5090725;28;20032;-87
2023/01/03 04:26:11;;;;;;;13.60;6.28;;;3.20;99.90;;;;;;5077468;28;20435;-87
2023/01/03 04:28:38;;;;;;;18.15;6.25;;;3.20;99.90;;;;;;5094104;28;20058;-88
2023/01/03 04:31:05;;;;;;;13.98;6.70;;;3.90;99.90;;;;;;5077755;28;20488;-88
2023/01/03 04:33:31;;;;;;;15.85;6.65;;;3.10;99.90;;;;;;5077541;28;20040;-87
2023/01/03 04:35:58;;;;;;;14.48;6.63;;;3.50;99.90;;;;;;5095595;28;20072;-88
2023/01/03 04:38:25;;;;;;;13.43;6.28;;;3.10;99.90;;;;;;5090429;28;20055;-88
2023/01/03 04:40:52;;;;;;;13.70;6.15;;;3.00;99.90;;;;;;5090729;28;20370;-89
2023/01/03 04:46:04;;;;;;;12.80;6.90;;;3.10;99.90;;;;;;5092868;28;20041;-88
2023/01/03 04:48:31;;;;;;;17.15;7.47;;;3.00;99.90;;;;;;5090498;28;20725;-88
2023/01/03 04:50:58;;;;;;;14.13;7.05;;;3.00;99.90;;;;;;5074161;28;20040;-87
2023/01/03 04:53:26;;;;;;;15.38;7.07;;;2.90;99.90;;;;;;5073699;28;20040;-88
2023/01/03 04:55:55;;;;;;;15.05;6.72;;;2.90;99.90;;;;;;5078357;28;20040;-88
2023/01/03 04:58:23;;;;;;;13.05;6.55;;;2.90;99.90;;;;;;5090169;28;20037;-88
2023/01/03 05:00:50;;;;;;;13.15;7.00;;;3.20;99.90;;;;;;5107154;28;20041;-88
2023/01/03 05:03:17;;;;;;;14.68;7.13;;;2.90;99.90;;;;;;5106885;28;20036;-88
2023/01/03 05:05:44;;;;;;;17.58;7.65;;;2.90;99.90;;;;;;5089974;28;20049;-88
2023/01/03 05:08:11;;;;;;;19.10;7.95;;;2.90;99.90;;;;;;5073539;28;20496;-88
2023/01/03 05:10:39;;;;;;;19.60;8.55;;;3.30;99.90;;;;;;5105961;28;20045;-88
2023/01/03 05:13:07;;;;;;;16.05;7.68;;;2.80;99.90;;;;;;5107027;28;20164;-89
2023/01/03 05:15:36;;;;;;;16.92;8.38;;;2.90;99.90;;;;;;5106547;28;20467;-88
2023/01/03 05:18:03;;;;;;;15.07;8.10;;;3.00;99.90;;;;;;5125491;28;20036;-88
2023/01/03 05:26:05;;;;;;;17.65;8.35;;;2.80;99.90;;;;;;5136854;28;20042;-87
2023/01/03 05:28:32;;;;;;;16.88;8.30;;;2.70;99.90;;;;;;5126853;28;20036;-87
2023/01/03 05:31:00;;;;;;;18.08;8.38;;;3.10;99.90;;;;;;5090205;28;20048;-88
2023/01/03 05:33:27;;;;;;;17.95;9.32;;;2.80;99.90;;;;;;5107817;28;20119;-88
2023/01/03 05:35:53;;;;;;;17.90;8.80;;;2.90;99.90;;;;;;5109956;28;20460;-88
2023/01/03 05:38:22;;;;;;;20.42;8.85;;;3.00;99.90;;;;;;5089323;28;20408;-88
2023/01/03 05:40:50;;;;;;;20.05;9.50;;;3.10;99.90;;;;;;5057416;28;20037;-88
2023/01/03 05:43:17;;;;;;;18.77;10.02;;;3.00;99.90;;;;;;5089834;28;20039;-86
2023/01/03 05:45:50;;;;;;;20.35;9.68;;;3.90;99.90;;;;;;5089688;28;20044;-88
2023/01/03 05:48:18;;;;;;;19.75;10.45;;;3.10;99.90;;;;;;5106244;28;20115;-84
2023/01/03 05:50:45;;;;;;;21.42;10.20;;;3.20;99.90;;;;;;5089960;28;20039;-88
2023/01/03 05:53:12;;;;;;;22.55;11.57;;;3.70;99.90;;;;;;5073321;28;20472;-88
2023/01/03 05:55:39;;;;;;;20.25;10.80;;;3.30;99.90;;;;;;5072827;28;20041;-87
2023/01/03 05:58:06;;;;;;;23.25;11.35;;;3.30;99.90;;;;;;5096119;28;20032;-87
2023/01/03 06:00:33;;;;;;;20.27;10.90;;;3.40;99.90;;;;;;5109603;28;20143;-87
2023/01/03 06:03:00;;;;;;;23.77;11.13;;;3.30;99.90;;;;;;5076685;28;20805;-88
2023/01/03 06:05:27;;;;;;;28.02;11.50;;;3.40;99.90;;;;;;5092618;28;20051;-88
2023/01/03 06:07:53;;;;;;;27.30;11.95;;;3.40;99.90;;;;;;5093135;28;20066;-87
2023/01/03 06:10:20;;;;;;;25.00;10.65;;;3.50;99.90;;;;;;5109722;28;20044;-84
2023/01/03 06:12:47;;;;;;;24.67;11.60;;;4.00;99.90;;;;;;5089830;28;20044;-88
2023/01/03 06:15:13;;;;;;;28.10;11.88;;;3.80;99.90;;;;;;5093165;28;20040;-88
2023/01/03 06:18:01;;;;;;;24.10;10.95;;;3.50;99.90;;;;;;5109622;28;20123;-88
2023/01/03 06:20:28;;;;;;;25.45;11.65;;;3.50;99.90;;;;;;5062726;28;20048;-88
2023/01/03 06:22:56;;;;;;;22.98;11.40;;;3.80;99.90;;;;;;5093002;28;20409;-88
2023/01/03 06:25:22;;;;;;;20.52;10.60;;;3.60;99.90;;;;;;5092853;28;20040;-84
2023/01/03 06:27:49;;;;;;;21.33;10.93;;;3.60;99.90;;;;;;5077570;28;20036;-88
2023/01/03 06:30:19;;;;;;;24.50;10.82;;;3.70;99.90;;;;;;5094875;28;20044;-88
2023/01/03 06:32:46;;;;;;;20.67;10.90;;;3.70;99.90;;;;;;5076775;28;20048;-88
2023/01/03 06:35:13;;;;;;;19.05;10.30;;;3.70;99.90;;;;;;5076284;28;20047;-88
2023/01/03 06:37:40;;;;;;;23.60;10.60;;;3.70;99.90;;;;;;5103172;28;20472;-88
2023/01/03 06:40:07;;;;;;;21.73;10.95;;;3.70;99.90;;;;;;5098561;28;20040;-89
2023/01/03 06:42:43;;;;;;;22.60;11.10;;;3.60;99.90;;;;;;5118063;28;20075;-87
2023/01/03 06:53:37;;;;;;;19.93;11.07;;;3.50;99.90;;;;;;5095033;28;20051;-87
2023/01/03 06:56:04;;;;;;;23.60;10.57;;;3.60;99.90;;;;;;5092396;28;20040;-88
2023/01/03 06:58:31;;;;;;;23.27;10.98;;;3.50;99.90;;;;;;5116243;28;20092;-88
2023/01/03 07:01:03;;;;;;;20.90;10.13;;;3.50;99.90;;;;;;5082241;28;20048;-88
2023/01/03 07:03:30;;;;;;;22.02;9.00;;;3.40;99.90;;;;;;5108599;28;20083;-89
2023/01/03 07:05:57;;;;;;;17.98;8.05;;;3.30;99.90;;;;;;5101698;28;20077;-88
2023/01/03 07:08:24;;;;;;;15.60;7.40;;;3.30;99.90;;;;;;5096860;28;20035;-88
2023/01/03 07:10:51;;;;;;;20.00;7.63;;;3.20;99.90;;;;;;5100650;28;20039;-88
2023/01/03 07:16:02;;;;;;;15.98;7.60;;;3.10;99.90;;;;;;5120956;28;20046;-88
2023/01/03 07:18:31;;;;;;;15.82;6.97;;;3.10;99.90;;;;;;5099249;28;20040;-90
2023/01/03 07:20:57;;;;;;;18.10;7.70;;;2.90;99.90;;;;;;5149900;28;20251;-86
2023/01/03 07:23:24;;;;;;;13.90;6.75;;;3.00;99.90;;;;;;5131993;28;20040;-87
2023/01/03 07:25:54;;;;;;;18.73;7.20;;;2.80;99.90;;;;;;5111949;28;20035;-87
2023/01/03 07:28:20;;;;;;;21.75;8.73;;;2.70;99.90;;;;;;5131711;28;20047;-87
2023/01/03 07:30:47;;;;;;;23.05;9.32;;;3.60;99.90;;;;;;5114762;28;20456;-88
2023/01/03 07:33:16;;;;;;;17.10;8.38;;;2.60;99.90;;;;;;5130809;28;20035;-89
2023/01/03 07:35:43;;;;;;;20.95;8.98;;;2.80;99.90;;;;;;5131053;28;20130;-86
2023/01/03 07:38:11;;;;;;;19.90;9.52;;;3.40;99.90;;;;;;5148075;28;20118;-86
2023/01/03 07:40:39;;;;;;;20.65;8.95;;;3.00;99.90;;;;;;5131495;28;20492;-86
2023/01/03 07:45:51;;;;;;;16.97;7.67;;;3.30;99.90;;;;;;5100806;28;20040;-85
2023/01/03 07:48:17;;;;;;;19.90;8.00;;;3.20;99.90;;;;;;5110873;28;20331;-85
2023/01/03 07:50:44;;;;;;;29.75;7.70;;;2.50;99.90;;;;;;5077145;28;20055;-86
2023/01/03 07:53:15;;;;;;;17.30;7.10;;;2.80;99.90;;;;;;5094038;28;20043;-85
2023/01/03 07:55:46;;;;;;;17.42;8.00;;;2.40;99.90;;;;;;5093444;28;20114;-85
2023/01/03 07:58:12;;;;;;;19.50;8.05;;;2.40;99.90;;;;;;5110590;28;20032;-86
2023/01/03 08:00:40;;;;;;;17.35;7.88;;;2.30;99.90;;;;;;5094048;28;20809;-88
2023/01/03 08:03:08;;;;;;;18.73;8.50;;;2.30;99.90;;;;;;5087612;28;20485;-86
2023/01/03 08:05:35;;;;;;;19.30;7.95;;;2.30;99.90;;;;;;5106646;28;20117;-86
2023/01/03 08:08:03;;;;;;;16.67;7.80;;;3.10;99.90;;;;;;5089850;28;20136;-85
2023/01/03 08:13:18;;;;;;;19.95;8.40;;;2.30;99.90;;;;;;5092770;28;20111;-85
2023/01/03 08:15:50;;;;;;;20.58;8.13;;;2.50;99.90;;;;;;5090178;28;20044;-85
2023/01/03 08:18:21;;;;;;;19.77;8.73;;;2.50;99.90;;;;;;5106599;28;20119;-85
2023/01/03 08:20:48;;;;;;;23.70;8.98;;;2.30;99.90;;;;;;5106673;28;20078;-86
2023/01/03 08:23:15;;;;;;;17.38;8.30;;;2.30;99.90;;;;;;5089830;28;20587;-86
2023/01/03 08:25:41;;;;;;;16.13;8.15;;;2.90;99.90;;;;;;5078271;28;20027;-85
2023/01/03 08:28:09;;;;;;;17.08;8.05;;;2.30;99.90;;;;;;5093711;28;20048;-86
2023/01/03 08:30:46;;;;;;;21.20;7.93;;;2.30;99.90;;;;;;5093654;28;20052;-86
2023/01/03 08:33:15;;;;;;;16.98;7.90;;;2.30;99.90;;;;;;5127175;28;20047;-86
2023/01/03 08:35:47;;;;;;;20.27;8.52;;;3.00;99.90;;;;;;5087039;28;20043;-86
2023/01/03 08:38:19;;;;;;;15.57;7.72;;;2.40;99.90;;;;;;5118747;28;20126;-85
2023/01/03 08:40:46;;;;;;;17.52;8.35;;;3.00;99.90;;;;;;5133719;28;20044;-85
2023/01/03 08:43:15;;;;;;;20.55;8.38;;;2.30;99.90;;;;;;5123387;28;20040;-86
2023/01/03 08:45:42;;;;;;;20.50;8.45;;;3.00;99.90;;;;;;5129726;28;20046;-83
2023/01/03 08:48:10;;;;;;;16.83;7.72;;;2.30;99.90;;;;;;5106747;28;20408;-86
2023/01/03 08:50:37;;;;;;;17.30;7.80;;;2.60;99.90;;;;;;5136966;28;20043;-85
2023/01/03 08:53:04;;;;;;;17.17;7.63;;;3.30;99.90;;;;;;5113355;28;20127;-86
2023/01/03 08:55:32;;;;;;;16.17;7.95;;;2.30;99.90;;;;;;5106436;28;20408;-86
2023/01/03 08:57:59;;;;;;;15.65;7.97;;;2.40;99.90;;;;;;5109274;28;20039;-86
2023/01/03 09:00:27;;;;;;;24.25;9.80;;;3.10;99.90;;;;;;5109855;28;20036;-86
2023/01/03 09:02:58;;;;;;;24.10;10.40;;;2.40;99.90;;;;;;5109641;28;20408;-86
2023/01/03 09:05:27;;;;;;;15.90;8.50;;;2.30;99.90;;;;;;5113020;28;20056;-88
2023/01/03 09:07:54;;;;;;;16.08;8.63;;;2.60;99.90;;;;;;5109776;28;20764;-83
2023/01/03 09:10:22;;;;;;;17.27;7.82;;;2.50;99.90;;;;;;5080002;28;20054;-84
2023/01/03 09:12:49;;;;;;;13.10;6.22;;;3.00;99.90;;;;;;5108479;28;20048;-87
2023/01/03 09:15:16;;;;;;;11.98;6.30;;;2.10;99.90;;;;;;5092261;28;20071;-84
2023/01/03 09:17:44;;;;;;;10.85;5.70;;;2.10;99.90;;;;;;5107432;28;20074;-83
2023/01/03 09:20:12;;;;;;;18.20;6.65;;;2.10;99.90;;;;;;5078212;28;20049;-84
2023/01/03 09:22:39;;;;;;;12.75;5.95;;;2.10;99.90;;;;;;5088822;28;20037;-85
2023/01/03 09:25:06;;;;;;;14.55;6.90;;;2.60;99.90;;;;;;5088486;28;20037;-86
2023/01/03 09:27:36;;;;;;;22.08;6.75;;;2.10;99.90;;;;;;5105784;28;20080;-85
2023/01/03 09:30:03;;;;;;;13.50;6.10;;;2.20;99.90;;;;;;5076549;28;20044;-82
2023/01/03 09:32:30;;;;;;;13.48;5.88;;;2.20;99.90;;;;;;5094451;28;20785;-86
2023/01/03 09:34:57;;;;;;;14.00;6.28;;;2.20;99.90;;;;;;5093553;28;20068;-86
2023/01/03 09:37:23;;;;;;;14.45;6.80;;;2.20;99.90;;;;;;5076282;28;20036;-86
2023/01/03 09:39:50;;;;;;;12.63;6.38;;;2.30;99.90;;;;;;5109224;28;20083;-86
2023/01/03 09:45:10;;;;;;;11.57;5.95;;;2.40;99.90;;;;;;5127234;28;20040;-86
2023/01/03 09:47:38;;;;;;;15.50;6.38;;;1.70;99.90;;;;;;5109224;28;20052;-86
2023/01/03 09:50:14;;;;;;;15.07;5.70;;;2.90;99.90;;;;;;5108037;28;20911;-86
2023/01/03 10:04:49;;;;;;;15.30;7.05;;;2.70;99.90;;;;;;5121140;28;20046;-87
2023/01/03 10:07:38;;;;;;;23.38;8.30;;;2.80;99.90;;;;;;5128658;28;20047;-83
2023/01/03 10:10:19;;;;;;;16.75;7.00;;;2.90;99.90;;;;;;5128737;28;20040;-86
2023/01/03 10:13:10;;;;;;;19.58;7.30;;;2.90;99.90;;;;;;5112945;28;20051;-86
2023/01/03 10:16:03;;;;;;;15.60;7.18;;;3.00;99.90;;;;;;5112433;28;20416;-86
2023/01/03 10:18:46;;;;;;;19.00;7.97;;;3.10;99.90;;;;;;5094934;28;20052;-86
2023/01/03 10:21:22;;;;;;;22.15;7.57;;;3.10;99.90;;;;;;5111535;28;20052;-86
2023/01/03 10:23:49;;;;;;;;;;;3.20;99.90;;;;;;5112848;28;20036;-86
2023/01/03 10:26:16;;;;;;;22.77;7.78;;;3.20;99.90;;;;;;5111713;28;19916;-86
2023/01/03 10:28:44;;;;;;;20.73;8.57;;;3.30;99.90;;;;;;5094314;28;20039;-86
2023/01/03 10:31:24;;;;;;;23.70;9.50;;;3.40;99.90;;;;;;5137989;28;20039;-87
2023/01/03 10:33:51;;;;;;;23.85;9.73;;;3.40;99.90;;;;;;5111510;28;20043;-87
2023/01/03 10:36:20;;;;;;;21.83;9.52;;;3.40;99.90;;;;;;5111537;28;20044;-87
2023/01/03 10:38:47;;;;;;;25.88;10.05;;;3.50;99.90;;;;;;5112691;28;20120;-87
2023/01/03 10:41:19;;;;;;;26.65;10.98;;;3.90;99.90;;;;;;5112165;28;20040;-87
2023/01/03 10:43:57;;;;;;;22.30;9.38;;;3.80;99.90;;;;;;5097381;28;20055;-86
2023/01/03 10:46:26;;;;;;;29.58;10.60;;;3.70;99.90;;;;;;5111982;28;20040;-86
2023/01/03 10:48:55;;;;;;;31.50;10.57;;;3.70;99.90;;;;;;5095562;28;20080;-85
2023/01/03 10:51:45;;;;;;;28.50;10.20;;;3.80;99.90;;;;;;5095420;28;20072;-86
2023/01/03 10:54:23;;;;;;;29.75;9.98;;;3.80;99.90;;;;;;5111445;28;20052;-86
2023/01/03 10:56:50;;;;;;;25.77;10.70;;;3.90;99.90;;;;;;5111416;28;20126;-86
2023/01/03 10:59:30;;;;;;;26.15;11.05;;;3.90;99.90;;;;;;5078729;28;20725;-86
2023/01/03 11:02:08;;;;;;;24.02;10.10;;;4.00;99.90;;;;;;5111468;28;20036;-85
2023/01/03 11:04:35;;;;;;;35.28;11.48;;;4.10;99.90;;;;;;5100287;28;20048;-86
2023/01/03 11:07:06;;;;;;;29.42;11.27;;;4.00;99.90;;;;;;5093570;28;20453;-86
2023/01/03 11:09:55;;;;;;;32.08;11.75;;;4.10;99.90;;;;;;5111530;28;20047;-86
2023/01/03 11:12:35;;;;;;;30.25;11.20;;;4.10;99.90;;;;;;5120558;28;20047;-86
2023/01/03 11:15:29;;;;;;;29.50;11.48;;;4.20;99.90;;;;;;5130288;28;20045;-86
2023/01/03 11:17:57;;;;;;;26.27;10.05;;;4.30;99.90;;;;;;5111385;28;20101;-86
2023/01/03 11:20:56;;;;;;;26.88;9.80;;;4.40;99.90;;;;;;5116954;28;20036;-86
2023/01/03 11:23:57;;;;;;;28.48;9.82;;;4.40;99.90;;;;;;5087132;28;20098;-86
2023/01/03 11:26:29;;;;;;;34.17;10.05;;;4.50;99.90;;;;;;5120458;28;20046;-86
2023/01/03 11:29:26;;;;;;;29.92;9.70;;;4.50;99.90;;;;;;5136093;28;20201;-86
2023/01/03 11:32:18;;;;;;;24.42;10.15;;;4.50;99.90;;;;;;5119102;28;20504;-86
2023/01/03 11:35:06;;;;;;;27.08;8.93;;;4.60;99.90;;;;;;5132345;28;20089;-86
2023/01/03 11:37:58;;;;;;;22.50;10.77;;;4.70;99.90;;;;;;5117461;28;20522;-86
2023/01/03 11:40:50;;;;;;;25.52;10.07;;;4.80;99.90;;;;;;5119060;28;20724;-86
2023/01/03 11:43:41;;;;;;;28.70;9.80;;;4.80;99.90;;;;;;5118832;28;20035;-86
2023/01/03 11:46:11;;;;;;;23.85;10.05;;;4.90;99.90;;;;;;5125424;28;20081;-86
2023/01/03 11:49:06;;;;;;;25.40;10.73;;;5.00;99.90;;;;;;5110810;28;20129;-86
2023/01/03 11:51:57;;;;;;;26.20;9.43;;;5.00;99.90;;;;;;5127561;28;20093;-86
2023/01/03 11:55:06;;;;;;;27.58;9.82;;;5.00;99.90;;;;;;5110325;28;20086;-86
2023/01/03 11:57:42;;;;;;;23.23;9.35;;;5.00;99.90;;;;;;5081299;28;20072;-87
2023/01/03 12:00:40;;;;;;;28.25;10.55;;;5.10;99.90;;;;;;5115727;28;20460;-86
2023/01/03 12:03:34;;;;;;;29.48;10.13;;;5.10;99.90;;;;;;5087728;28;20043;-87
2023/01/03 12:06:25;;;;;;;24.70;9.40;;;5.10;99.90;;;;;;5139812;28;20701;-86
2023/01/03 12:09:09;;;;;;;22.63;8.82;;;5.10;99.90;;;;;;5123544;28;20036;-86
2023/01/03 12:12:06;;;;;;;31.80;10.27;;;5.20;99.90;;;;;;5126476;28;20043;-86
2023/01/03 12:14:46;;;;;;;23.42;9.82;;;5.20;99.90;;;;;;5108393;28;20063;-86
2023/01/03 12:17:20;;;;;;;24.63;10.45;;;5.20;99.90;;;;;;5109344;28;20069;-85
2023/01/03 12:20:02;;;;;;;25.27;9.43;;;5.30;99.90;;;;;;5107555;28;21498;-86
2023/01/03 12:23:08;;;;;;;26.27;9.48;;;5.20;99.90;;;;;;5127415;28;20036;-86
2023/01/03 12:25:37;;;;;;;27.75;9.90;;;5.20;99.90;;;;;;5125442;28;20044;-86
2023/01/03 12:28:17;;;;;;;25.25;10.25;;;5.30;99.90;;;;;;5109106;28;20036;-84
2023/01/03 12:30:56;;;;;;;26.02;9.25;;;5.30;99.90;;;;;;5115600;28;20075;-85
2023/01/03 12:33:35;;;;;;;25.58;10.52;;;5.30;99.90;;;;;;5112704;28;20067;-86
2023/01/03 12:36:25;;;;;;;28.08;11.10;;;5.40;99.90;;;;;;5115742;28;20089;-87
2023/01/03 12:39:17;;;;;;;28.30;10.65;;;5.40;99.90;;;;;;5101149;28;20044;-86
2023/01/03 12:41:56;;;;;;;25.83;11.85;;;5.40;99.90;;;;;;5104902;28;20043;-87
2023/01/03 12:45:02;;;;;;;26.08;11.55;;;5.50;99.90;;;;;;5107285;28;20042;-87
2023/01/03 12:47:58;;;;;;;23.55;10.40;;;5.50;99.90;;;;;;5141450;28;20031;-88
2023/01/03 12:50:37;;;;;;;29.10;11.63;;;5.60;99.90;;;;;;5106330;28;20039;-87
2023/01/03 12:53:28;;;;;;;25.73;10.80;;;5.60;99.90;;;;;;5109389;28;20040;-87
2023/01/03 12:56:04;;;;;;;29.88;10.23;;;5.60;99.90;;;;;;5116148;28;20040;-87
2023/01/03 12:58:39;;;;;;;19.02;9.02;;;5.60;99.90;;;;;;5111691;28;20043;-87
2023/01/03 13:01:08;;;;;;;25.52;9.63;;;5.60;99.90;;;;;;5126246;28;20050;-86
2023/01/03 13:03:45;;;;;;;22.35;9.45;;;5.60;99.90;;;;;;5109297;28;20116;-86
2023/01/03 13:06:18;;;;;;;24.13;10.18;;;5.70;99.90;;;;;;5097222;28;20108;-86
2023/01/03 13:09:00;;;;;;;21.73;10.32;;;5.70;99.90;;;;;;5112880;28;20048;-87
2023/01/03 13:11:36;;;;;;;25.02;9.95;;;5.70;99.90;;;;;;5108987;28;20547;-87
2023/01/03 13:14:17;;;;;;;22.77;9.50;;;5.70;99.90;;;;;;5110118;28;20127;-87
2023/01/03 13:16:47;;;;;;;25.65;10.73;;;5.80;99.90;;;;;;5108528;28;20559;-87
2023/01/03 13:19:20;;;;;;;24.35;8.57;;;5.90;99.90;;;;;;5109758;28;20044;-87
2023/01/03 13:21:53;;;;;;;23.33;9.45;;;5.80;99.90;;;;;;5109044;28;20625;-87
2023/01/03 13:24:43;;;;;;;20.55;9.30;;;5.80;99.90;;;;;;5114935;28;20152;-87
2023/01/03 13:27:16;;;;;;;22.60;8.45;;;5.80;99.90;;;;;;5142575;28;20491;-86
2023/01/03 13:29:48;;;;;;;20.55;8.95;;;5.80;99.90;;;;;;5135742;28;20048;-86
2023/01/03 13:32:27;;;;;;;28.90;12.70;;;5.80;99.90;;;;;;5112416;28;20055;-86
2023/01/03 13:34:57;;;;;;;34.25;15.13;;;5.80;99.90;;;;;;5112983;28;20048;-86
2023/01/03 13:37:47;;;;;;;29.40;14.30;;;5.90;99.90;;;;;;5112326;28;20553;-86
2023/01/03 13:40:32;;;;;;;25.95;12.90;;;5.90;99.90;;;;;;5112837;28;20464;-85
2023/01/03 13:43:07;;;;;;;22.88;11.85;;;5.90;99.90;;;;;;5113935;28;20105;-86
2023/01/03 13:45:34;;;;;;;27.17;11.60;;;5.90;99.90;;;;;;5112760;28;20055;-85
2023/01/03 13:48:31;;;;;;;30.92;11.00;;;5.90;99.90;;;;;;5112726;28;20165;-85
2023/01/03 13:51:02;;;;;;;;;;;5.90;99.90;;;;;;5091087;28;20045;-86
2023/01/03 13:53:34;;;;;;;23.33;10.77;;;5.90;99.90;;;;;;5092423;28;19934;-86
2023/01/03 13:56:13;;;;;;;25.35;10.38;;;5.90;99.90;;;;;;5108061;28;20036;-86
2023/01/03 13:58:43;;;;;;;21.63;9.93;;;5.90;99.90;;;;;;5129960;28;20415;-87
2023/01/03 14:01:51;;;;;;;18.52;9.35;;;5.90;99.90;;;;;;5134399;28;20032;-87
2023/01/03 14:04:30;;;;;;;22.33;9.07;;;5.90;99.90;;;;;;5111198;28;20576;-86
2023/01/03 14:07:20;;;;;;;21.58;10.65;;;6.00;99.90;;;;;;5143376;28;20048;-86
2023/01/03 14:09:55;;;;;;;19.15;9.27;;;6.00;99.90;;;;;;5112545;28;20036;-86
2023/01/03 14:12:40;;;;;;;21.98;9.48;;;6.00;99.90;;;;;;5113951;28;20048;-85
2023/01/03 14:15:16;;;;;;;18.77;8.85;;;6.00;99.90;;;;;;5119924;28;20510;-85
2023/01/03 14:17:47;;;;;;;17.13;9.88;;;6.00;99.90;;;;;;5114752;28;20500;-85
2023/01/03 14:20:21;;;;;;;23.27;9.32;;;6.10;99.90;;;;;;5129005;28;20127;-84
2023/01/03 14:22:50;;;;;;;26.20;9.68;;;6.00;99.90;;;;;;5097654;28;20048;-85